Time;durP1;ratioP1;P1;durP2;ratioP2;P2;SDS_P1;SDS_P2;PMS_P1;PMS_P2;Temp;Humidity;BMP_temperature;BMP_pressure;BME280_temperature;BME280_humidity;BME280_pressure;Samples;Min_cycle;Max_cycle;Signal;HPM_P1;HPM_P2
2023/01/04 00:02:29;;;;;;;0.00;0.00;;;;;;;-145.06;100.00;53857.97;10323124;28;20022;-89
2023/01/04 00:07:29;;;;;;;0.10;0.10;;;;;;;-145.06;100.00;53868.09;10323350;28;20741;-89
2023/01/04 00:12:30;;;;;;;0.00;0.00;;;;;;;-145.06;100.00;53864.03;10323500;28;20412;-89
2023/01/04 00:17:30;;;;;;;0.00;0.00;;;;;;;-145.06;100.00;53874.16;10338882;28;20026;-90
2023/01/04 00:22:33;;;;;;;0.10;0.10;;;;;;;-145.06;100.00;53859.97;10322604;28;20474;-90
2023/01/04 00:27:34;;;;;;;0.00;0.00;;;;;;;-145.06;100.00;53841.75;10321967;28;20042;-89
2023/01/04 00:32:34;;;;;;;0.00;0.00;;;;;;;-145.06;100.00;53853.91;10321273;28;20030;-90
2023/01/04 00:37:34;;;;;;;0.00;0.00;;;;;;;-145.06;100.00;53920.75;10323516;28;20022;-89
2023/01/04 00:42:35;;;;;;;0.00;0.00;;;;;;;-145.06;100.00;53853.91;10329767;28;20281;-89
2023/01/04 00:47:35;;;;;;;0.00;0.00;;;;;;;-145.06;100.00;53884.28;10346965;28;20284;-88
2023/01/04 00:52:35;;;;;;;0.00;0.00;;;;;;;-145.06;100.00;53882.25;10320666;28;20501;-88
2023/01/04 00:57:35;;;;;;;0.00;0.00;;;;;;;-145.06;100.00;53876.19;10319764;28;20026;-88
2023/01/04 01:02:36;;;;;;;0.00;0.00;;;;;;;-145.06;100.00;53827.59;10320096;28;20023;-90
2023/01/04 01:07:36;;;;;;;0.00;0.00;;;;;;;-145.06;100.00;53862.00;10321137;28;20406;-90
2023/01/04 01:12:37;;;;;;;0.00;0.00;;;;;;;-145.06;100.00;53884.28;10320753;28;20026;-90
2023/01/04 01:17:37;;;;;;;0.00;0.00;;;;;;;-145.06;100.00;53886.31;10341787;28;20257;-90
2023/01/04 01:22:37;;;;;;;0.00;0.00;;;;;;;-145.06;100.00;53827.59;10320377;28;20026;-90
2023/01/04 01:27:37;;;;;;;0.10;0.10;;;;;;;-145.06;100.00;53892.38;10319409;28;20019;-90
2023/01/04 01:32:38;;;;;;;0.00;0.00;;;;;;;-145.06;100.00;53851.88;10319901;28;20554;-90
2023/01/04 01:37:38;;;;;;;0.00;0.00;;;;;;;-145.06;100.00;53878.22;10321167;28;20026;-90
2023/01/04 01:42:38;;;;;;;0.05;0.05;;;;;;;-145.06;100.00;53880.22;10323880;28;20018;-90
2023/01/04 01:47:43;;;;;;;0.10;0.10;;;;;;;-145.06;100.00;53837.72;10346871;28;20498;-90
2023/01/04 01:52:44;;;;;;;0.10;0.10;;;;;;;-145.06;100.00;53815.44;10322184;28;20019;-90
2023/01/04 01:57:48;;;;;;;0.00;0.00;;;;;;;-145.06;100.00;53853.91;10318039;28;20018;-91
2023/01/04 02:03:17;;;;;;;0.00;0.00;;;;;;;-145.06;100.00;53819.47;10335082;28;20324;-90
2023/01/04 02:08:21;;;;;;;0.00;0.00;;;;;;;-145.06;100.00;53872.13;10317881;28;20117;-90
2023/01/04 02:14:25;;;;;;;0.10;0.10;;;;;;;-145.06;100.00;53862.00;10322264;28;20121;-88
2023/01/04 02:19:00;;;;;;;0.00;0.00;;;;;;;-145.06;100.00;53876.19;10338777;28;20541;-90
2023/01/04 02:24:25;;;;;;;0.00;0.00;;;;;;;-145.06;100.00;53866.06;10319278;28;20026;-90
2023/01/04 02:29:37;;;;;;;;;;;;;;;-145.06;100.00;53829.59;10329005;28;20015;-91
2023/01/04 02:35:03;;;;;;;0.03;0.03;;;;;;;-145.06;100.00;53849.84;10324314;28;20294;-90
2023/01/04 02:40:18;;;;;;;0.10;0.10;;;;;;;-145.06;100.00;53855.94;10317599;28;20053;-91
2023/01/04 02:45:23;;;;;;;0.10;0.10;;;;;;;-145.06;100.00;53851.88;10334036;23;20047;-92
2023/01/04 02:50:39;;;;;;;0.10;0.10;;;;;;;-145.06;100.00;53876.19;10237975;29;20054;-92
2023/01/04 02:56:03;;;;;;;0.10;0.10;;;;;;;-145.06;100.00;53864.03;10245091;28;20026;-92
2023/01/04 03:06:59;;;;;;;0.10;0.10;;;;;;;-145.06;100.00;53853.91;10262588;28;20454;-92
2023/01/04 03:12:31;;;;;;;0.00;0.00;;;;;;;-145.06;100.00;53882.25;10239798;29;20126;-91
2023/01/04 03:17:41;;;;;;;0.00;0.00;;;;;;;-145.06;100.00;53878.22;10280141;28;20042;-92
2023/01/04 03:50:22;;;;;;;0.00;0.00;;;;;;;-145.06;100.00;53872.13;10064616;29;20034;-91
2023/01/04 03:55:26;;;;;;;0.00;0.00;;;;;;;-145.06;100.00;53872.13;10255623;28;20578;-90
2023/01/04 04:00:27;;;;;;;0.00;0.00;;;;;;;-145.06;100.00;53851.88;10246050;29;20579;-91
2023/01/04 04:10:46;;;;;;;0.00;0.00;;;;;;;-145.06;100.00;53855.94;10262357;29;20023;-91
2023/01/04 04:15:47;;;;;;;0.00;0.00;;;;;;;-145.06;100.00;53874.16;10273966;28;20469;-91
2023/01/04 04:20:56;;;;;;;0.00;0.00;;;;;;;-145.06;100.00;53882.25;10245891;29;20065;-90
2023/01/04 04:25:56;;;;;;;0.00;0.00;;;;;;;-145.06;100.00;53839.72;10245613;28;20022;-90
2023/01/04 04:30:56;;;;;;;0.00;0.00;;;;;;;-145.06;100.00;53888.34;10248159;29;20041;-91
2023/01/04 04:35:57;;;;;;;0.00;0.00;;;;;;;-145.06;100.00;53884.28;10248059;28;20602;-91
2023/01/04 04:46:16;;;;;;;0.00;0.00;;;;;;;-145.06;100.00;53880.22;10267804;28;20105;-90
2023/01/04 04:51:16;;;;;;;0.00;0.00;;;;;;;-145.06;100.00;53876.19;10250032;29;20512;-91
2023/01/04 04:56:16;;;;;;;0.00;0.00;;;;;;;-145.06;100.00;53866.06;10251052;28;20051;-91
2023/01/04 05:01:17;;;;;;;0.10;0.10;;;;;;;-145.06;100.00;53888.34;10265203;29;20267;-90
2023/01/04 05:06:18;;;;;;;0.00;0.00;;;;;;;-145.06;100.00;53853.91;10269903;28;20434;-91
2023/01/04 05:12:58;;;;;;;0.00;0.00;;;;;;;-145.06;100.00;53849.84;10253583;29;20091;-91
2023/01/04 05:16:39;;;;;;;0.00;0.00;;;;;;;-145.06;100.00;53906.56;10283406;28;20454;-91
2023/01/04 05:21:39;;;;;;;0.00;0.00;;;;;;;-145.06;100.00;53876.19;10257905;29;20031;-90
2023/01/04 05:26:40;;;;;;;0.00;0.00;;;;;;;-145.06;100.00;53880.22;10255664;28;20655;-90
2023/01/04 05:31:40;;;;;;;0.00;0.00;;;;;;;-145.06;100.00;53868.09;10255349;29;20550;-90
2023/01/04 05:36:40;;;;;;;0.00;0.00;;;;;;;-145.06;100.00;53827.59;10256887;28;20099;-89
2023/01/04 05:46:59;;;;;;;0.00;0.00;;;;;;;-145.06;100.00;53868.09;10279955;28;20031;-90
2023/01/04 05:51:59;;;;;;;0.00;0.00;;;;;;;-145.06;100.00;53835.69;10257414;29;20059;-91
2023/01/04 05:57:00;;;;;;;0.00;0.00;;;;;;;-145.06;100.00;53868.09;10257031;28;20046;-91
2023/01/04 06:02:00;;;;;;;0.10;0.10;;;;;;;-145.06;100.00;53843.78;10271379;28;20070;-91
2023/01/04 06:07:00;;;;;;;0.00;0.00;;;;;;;-145.06;100.00;53849.84;10242250;28;20104;-92
2023/01/04 06:12:01;;;;;;;0.00;0.00;;;;;;;-145.06;100.00;53886.31;10261157;29;20503;-91
2023/01/04 06:17:01;;;;;;;0.10;0.10;;;;;;;-145.06;100.00;53884.28;10256863;28;20029;-92
2023/01/04 06:22:02;;;;;;;0.00;0.00;;;;;;;-145.06;100.00;53888.34;10243983;29;20023;-91
2023/01/04 06:27:02;;;;;;;0.00;0.00;;;;;;;-145.06;100.00;53866.06;10259760;28;20066;-91
2023/01/04 06:32:03;;;;;;;0.00;0.00;;;;;;;-145.06;100.00;53859.97;10247903;29;20035;-91
2023/01/04 06:37:04;;;;;;;0.00;0.00;;;;;;;-145.06;100.00;53839.72;10249735;28;20019;-90
2023/01/04 06:42:43;;;;;;;0.08;0.08;;;;;;;-145.06;100.00;53884.28;10264748;29;20508;-91
2023/01/04 06:47:26;;;;;;;0.00;0.00;;;;;;;-145.06;100.00;53839.72;10274991;28;20031;-91
2023/01/04 06:52:26;;;;;;;0.10;0.10;;;;;;;-145.06;100.00;53910.63;10249658;29;20503;-91
2023/01/04 06:57:27;;;;;;;0.00;0.00;;;;;;;-145.06;100.00;53851.88;10251325;28;20031;-91
2023/01/04 07:02:27;;;;;;;0.10;0.10;;;;;;;-145.06;100.00;53862.00;10285046;28;20019;-91
2023/01/04 07:07:28;;;;;;;0.00;0.00;;;;;;;-145.06;100.00;53904.53;10265957;28;20104;-91
2023/01/04 07:12:28;;;;;;;0.10;0.10;;;;;;;-145.06;100.00;53849.84;10267174;28;20031;-91
2023/01/04 07:17:29;;;;;;;0.00;0.00;;;;;;;-145.06;100.00;53894.41;10271131;28;20011;-91
2023/01/04 07:22:29;;;;;;;0.10;0.10;;;;;;;-145.06;100.00;53866.06;10259681;29;20061;-91
2023/01/04 07:27:29;;;;;;;0.03;0.03;;;;;;;-145.06;100.00;53920.75;10266426;28;20086;-91
2023/01/04 07:32:30;;;;;;;0.00;0.00;;;;;;;-145.06;100.00;53843.78;10259291;29;20055;-92
2023/01/04 07:37:30;;;;;;;0.10;0.10;;;;;;;-145.06;100.00;53847.84;10278976;28;20020;-92
2023/01/04 07:42:30;;;;;;;0.10;0.10;;;;;;;-145.06;100.00;53864.03;10258695;28;20094;-91
2023/01/04 07:47:31;;;;;;;0.00;0.00;;;;;;;-145.06;100.00;53866.06;10273812;28;20054;-91
2023/01/04 07:52:31;;;;;;;0.10;0.10;;;;;;;-145.06;100.00;53864.03;10254857;29;20023;-90
2023/01/04 07:57:31;;;;;;;0.00;0.00;;;;;;;-145.06;100.00;53837.72;10256605;28;20475;-91
2023/01/04 08:02:32;;;;;;;0.00;0.00;;;;;;;-145.06;100.00;53835.69;10253973;29;21433;-90
2023/01/04 08:07:32;;;;;;;0.10;0.10;;;;;;;-145.06;100.00;53845.81;10232802;28;20506;-90
2023/01/04 08:12:32;;;;;;;0.10;0.10;;;;;;;-145.06;100.00;53851.88;10253258;29;20019;-90
2023/01/04 08:17:33;;;;;;;0.10;0.10;;;;;;;-145.06;100.00;53841.75;10265153;28;20267;-90
2023/01/04 08:22:33;;;;;;;0.00;0.00;;;;;;;-145.06;100.00;53874.16;10237343;29;20526;-90
2023/01/04 08:27:33;;;;;;;0.10;0.10;;;;;;;-145.06;100.00;53864.03;10252901;28;20451;-90
2023/01/04 08:32:34;;;;;;;0.10;0.10;;;;;;;-145.06;100.00;53866.06;10236903;29;20023;-90
2023/01/04 08:37:34;;;;;;;0.07;0.07;;;;;;;-145.06;100.00;53868.09;10236800;28;20632;-91
2023/01/04 08:42:34;;;;;;;0.00;0.00;;;;;;;-145.06;100.00;53876.19;10253147;29;20104;-91
2023/01/04 08:52:37;;;;;;;0.10;0.10;;;;;;;-145.06;100.00;53884.28;10346652;28;20305;-78
2023/01/04 08:57:37;;;;;;;0.10;0.10;;;;;;;-145.06;100.00;53839.72;10344476;28;20458;-78
2023/01/04 09:02:38;;;;;;;0.10;0.10;;;;;;;-145.06;100.00;53851.88;10337350;28;20027;-79
2023/01/04 09:07:38;;;;;;;0.10;0.10;;;;;;;-145.06;100.00;53835.69;10317012;28;20370;-78
2023/01/04 09:12:38;;;;;;;0.10;0.10;;;;;;;-145.06;100.00;53847.84;10319257;28;20026;-78
2023/01/04 09:17:39;;;;;;;0.03;0.03;;;;;;;-145.06;100.00;53839.72;10331517;28;20018;-79
2023/01/04 09:22:39;;;;;;;0.10;0.10;;;;;;;-145.06;100.00;53878.22;10329658;28;20094;-78
2023/01/04 09:27:39;;;;;;;0.10;0.10;;;;;;;-145.06;100.00;53823.53;10296867;28;20198;-79
2023/01/04 09:32:40;;;;;;;0.10;0.10;;;;;;;-145.06;100.00;53811.38;10309396;28;20022;-79
2023/01/04 09:37:40;;;;;;;0.07;0.07;;;;;;;-145.06;100.00;53809.34;10335147;28;20018;-79
2023/01/04 09:42:43;;;;;;;0.00;0.00;;;;;;;-145.06;100.00;53853.91;10313238;28;20274;-79
2023/01/04 09:47:46;;;;;;;0.03;0.03;;;;;;;-145.06;100.00;53882.25;10313484;28;20026;-79
2023/01/04 09:53:02;;;;;;;0.10;0.10;;;;;;;-145.06;100.00;53876.19;10296596;28;20046;-78
2023/01/04 09:58:11;;;;;;;0.10;0.10;;;;;;;-145.06;100.00;53853.91;10297104;28;20051;-79
2023/01/04 10:03:17;;;;;;;0.10;0.10;;;;;;;-145.06;100.00;53866.06;10278370;28;20046;-79
2023/01/04 10:08:19;;;;;;;0.03;0.03;;;;;;;-145.06;100.00;53866.06;10296513;28;20030;-79
2023/01/04 10:13:34;;;;;;;0.10;0.10;;;;;;;-145.06;100.00;53859.97;10303652;28;20022;-79
2023/01/04 10:18:34;;;;;;;0.10;0.10;;;;;;;-145.06;100.00;53817.47;10331511;28;20022;-78
2023/01/04 10:24:12;;;;;;;0.10;0.10;;;;;;;-145.06;100.00;53803.28;10318626;28;20056;-78
2023/01/04 10:29:50;;;;;;;0.10;0.10;;;;;;;-145.06;100.00;53851.88;10335537;28;20237;-78
2023/01/04 10:34:52;;;;;;;0.10;0.10;;;;;;;-145.06;100.00;53851.88;10318693;28;20022;-79
2023/01/04 10:39:56;;;;;;;0.05;0.05;;;;;;;-145.06;100.00;53817.47;10302761;28;20053;-79
2023/01/04 10:45:17;;;;;;;0.10;0.10;;;;;;;-145.06;100.00;53880.22;10290272;28;20025;-78
2023/01/04 10:50:45;;;;;;;0.10;0.10;;;;;;;-145.06;100.00;53849.84;10319044;28;20038;-79
2023/01/04 10:55:54;;;;;;;0.10;0.10;;;;;;;-145.06;100.00;53845.81;10278090;28;20430;-78
2023/01/04 11:01:11;;;;;;;0.10;0.10;;;;;;;-145.06;100.00;53855.94;10290860;28;20027;-79
2023/01/04 11:06:46;;;;;;;0.00;0.00;;;;;;;-145.06;100.00;53847.84;10283865;28;20109;-78
2023/01/04 11:11:47;;;;;;;0.00;0.00;;;;;;;-145.06;100.00;53880.22;10182750;28;20054;-79
2023/01/04 11:16:50;;;;;;;0.10;0.10;;;;;;;-145.06;100.00;53847.84;10313684;28;20026;-79
2023/01/04 11:21:59;;;;;;;0.00;0.00;;;;;;;-145.06;100.00;53833.66;10315441;28;20392;-79
2023/01/04 11:27:14;;;;;;;0.10;0.10;;;;;;;-145.06;100.00;53819.47;10342332;28;20030;-79
2023/01/04 11:32:21;;;;;;;0.00;0.00;;;;;;;-145.06;100.00;53847.84;10331021;28;20035;-79
2023/01/04 11:37:36;;;;;;;0.10;0.10;;;;;;;-145.06;100.00;53870.09;10316986;28;20212;-79
2023/01/04 11:42:37;;;;;;;0.00;0.00;;;;;;;-145.06;100.00;53896.44;10341098;28;20029;-79
2023/01/04 11:47:47;;;;;;;0.00;0.00;;;;;;;-145.06;100.00;53809.34;10316843;28;20386;-79
2023/01/04 11:52:47;;;;;;;0.00;0.00;;;;;;;-145.06;100.00;53819.47;10301947;28;20027;-79
2023/01/04 11:58:04;;;;;;;0.10;0.10;;;;;;;-145.06;100.00;53837.72;10327437;28;20151;-79
2023/01/04 12:03:18;;;;;;;0.00;0.00;;;;;;;-145.06;100.00;53847.84;10340358;28;20022;-80
2023/01/04 12:08:34;;;;;;;0.00;0.00;;;;;;;-145.06;100.00;53831.63;10319077;28;20027;-80
2023/01/04 12:13:36;;;;;;;0.10;0.10;;;;;;;-145.06;100.00;53835.69;10282538;28;20041;-80
2023/01/04 12:18:44;;;;;;;0.10;0.10;;;;;;;-145.06;100.00;53888.34;10338333;28;20025;-79
2023/01/04 12:23:45;;;;;;;0.00;0.00;;;;;;;-145.06;100.00;53859.97;10337240;28;20037;-80
2023/01/04 12:28:48;;;;;;;0.00;0.00;;;;;;;-145.06;100.00;53843.78;10313904;28;20026;-79
2023/01/04 12:33:50;;;;;;;0.00;0.00;;;;;;;-145.06;100.00;53864.03;10301226;28;20022;-79
2023/01/04 12:38:51;;;;;;;0.10;0.10;;;;;;;-145.06;100.00;53855.94;10310470;28;20102;-80
2023/01/04 12:43:52;;;;;;;0.10;0.10;;;;;;;-145.06;100.00;53835.69;10306049;28;20052;-79
2023/01/04 12:49:04;;;;;;;0.10;0.10;;;;;;;-145.06;100.00;53789.09;10288028;28;20649;-78
2023/01/04 12:54:20;;;;;;;0.10;0.10;;;;;;;-145.06;100.00;53851.88;10303939;28;20018;-79
2023/01/04 12:59:35;;;;;;;0.10;0.10;;;;;;;-145.06;100.00;53835.69;10333123;28;20022;-79
2023/01/04 13:04:39;;;;;;;;;;;;;;;-145.06;100.00;53851.88;10325684;28;20115;-77
2023/01/04 13:09:45;;;;;;;0.08;0.08;;;;;;;-145.06;100.00;53825.56;10296610;28;19910;-79
2023/01/04 13:14:52;;;;;;;0.10;0.10;;;;;;;-145.06;100.00;53835.69;10295903;28;20085;-78
2023/01/04 13:19:53;;;;;;;0.10;0.10;;;;;;;-145.06;100.00;53845.81;10313389;28;20024;-79
2023/01/04 13:24:56;;;;;;;0.10;0.10;;;;;;;-145.06;100.00;53835.69;10309606;28;20034;-79
2023/01/04 13:29:56;;;;;;;0.10;0.10;;;;;;;-145.06;100.00;53835.69;10290268;28;20026;-78
2023/01/04 13:35:02;;;;;;;0.00;0.00;;;;;;;-145.06;100.00;53868.09;10320718;28;20033;-80
2023/01/04 13:40:24;;;;;;;0.10;0.10;;;;;;;-145.06;100.00;53870.09;10307982;28;20087;-80
2023/01/04 13:45:42;;;;;;;0.00;0.00;;;;;;;-145.06;100.00;53821.50;10304021;28;20026;-80
2023/01/04 13:50:48;;;;;;;0.10;0.10;;;;;;;-145.06;100.00;53839.72;10323889;28;20092;-80
2023/01/04 13:55:57;;;;;;;0.10;0.10;;;;;;;-145.06;100.00;53839.72;10316251;28;20389;-79
2023/01/04 14:01:06;;;;;;;0.10;0.10;;;;;;;-145.06;100.00;53864.03;10319784;28;20023;-79
2023/01/04 14:06:09;;;;;;;0.10;0.10;;;;;;;-145.06;100.00;53859.97;10299774;28;20026;-79
2023/01/04 14:16:42;;;;;;;0.10;0.10;;;;;;;-145.06;100.00;53853.91;10322812;28;20022;-79
2023/01/04 14:21:42;;;;;;;0.00;0.00;;;;;;;-145.06;100.00;53829.59;10313641;28;20053;-80
2023/01/04 14:26:42;;;;;;;0.10;0.10;;;;;;;-145.06;100.00;53839.72;10293110;28;20288;-79
2023/01/04 14:31:43;;;;;;;0.10;0.10;;;;;;;-145.06;100.00;53872.13;10297945;28;20027;-79
2023/01/04 14:36:43;;;;;;;0.10;0.10;;;;;;;-145.06;100.00;53839.72;10300870;28;20023;-79
2023/01/04 14:41:56;;;;;;;0.00;0.00;;;;;;;-145.06;100.00;53868.09;10275792;28;20037;-80
2023/01/04 14:46:59;;;;;;;0.10;0.10;;;;;;;-145.06;100.00;53817.47;10304261;23;20428;-77
2023/01/04 14:52:01;;;;;;;0.10;0.10;;;;;;;-145.06;100.00;53841.75;10292695;28;20115;-77
2023/01/04 14:57:02;;;;;;;0.10;0.10;;;;;;;-145.06;100.00;53849.84;10296584;28;20097;-77
2023/01/04 15:02:02;;;;;;;0.10;0.10;;;;;;;-145.06;100.00;53847.84;10296340;28;20109;-77
2023/01/04 15:07:02;;;;;;;0.10;0.10;;;;;;;-145.06;100.00;53894.41;10295921;28;20058;-77
2023/01/04 15:12:03;;;;;;;0.10;0.10;;;;;;;-145.06;100.00;53823.53;10296068;28;20069;-77
2023/01/04 15:17:03;;;;;;;0.00;0.00;;;;;;;-145.06;100.00;53862.00;10295895;28;20320;-77
2023/01/04 15:22:03;;;;;;;0.10;0.10;;;;;;;-145.06;100.00;53868.09;10295554;28;20035;-77
2023/01/04 15:27:04;;;;;;;0.10;0.10;;;;;;;-145.06;100.00;53866.06;10295301;28;20018;-77
2023/01/04 15:32:04;;;;;;;0.10;0.10;;;;;;;-145.06;100.00;53864.03;10295144;28;20026;-77
2023/01/04 15:37:04;;;;;;;0.10;0.10;;;;;;;-145.06;100.00;53819.47;10278279;28;20274;-77
2023/01/04 15:47:23;;;;;;;0.00;0.00;;;;;;;-145.06;100.00;53862.00;10295507;28;20054;-77
2023/01/04 15:52:24;;;;;;;0.10;0.10;;;;;;;-145.06;100.00;53839.72;10298065;28;20094;-77
2023/01/04 15:57:24;;;;;;;0.00;0.00;;;;;;;-145.06;100.00;53847.84;10297528;28;20019;-77
2023/01/04 16:02:25;;;;;;;0.00;0.00;;;;;;;-145.06;100.00;53855.94;10298075;28;20023;-78
2023/01/04 16:07:25;;;;;;;0.10;0.10;;;;;;;-145.06;100.00;53868.09;10296741;28;20022;-77
2023/01/04 16:12:40;;;;;;;0.00;0.00;;;;;;;-145.06;100.00;53868.09;10295755;28;20392;-78
2023/01/04 16:17:42;;;;;;;0.10;0.10;;;;;;;-145.06;100.00;53821.50;10277570;28;20118;-77
2023/01/04 16:22:42;;;;;;;0.10;0.10;;;;;;;-145.06;100.00;53868.09;10294896;28;20027;-77
2023/01/04 16:27:43;;;;;;;0.00;0.00;;;;;;;-145.06;100.00;53866.06;10276835;28;20378;-77
2023/01/04 16:32:43;;;;;;;0.10;0.10;;;;;;;-145.06;100.00;53839.72;10294175;28;20037;-77
2023/01/04 16:37:45;;;;;;;0.10;0.10;;;;;;;-145.06;100.00;53837.72;10292759;28;20023;-77
2023/01/04 16:42:50;;;;;;;0.10;0.10;;;;;;;-145.06;100.00;53849.84;10275262;28;20399;-77
2023/01/04 16:47:52;;;;;;;0.10;0.10;;;;;;;-145.06;100.00;53843.78;10307120;28;20101;-77
2023/01/04 16:52:52;;;;;;;0.10;0.10;;;;;;;-145.06;100.00;53847.84;10292273;28;20023;-77
2023/01/04 16:57:53;;;;;;;0.10;0.10;;;;;;;-145.06;100.00;53884.28;10274830;28;20449;-77
2023/01/04 17:02:53;;;;;;;0.10;0.10;;;;;;;-145.06;100.00;53853.91;10291570;28;20121;-77
2023/01/04 17:07:53;;;;;;;0.10;0.10;;;;;;;-145.06;100.00;53868.09;10293707;28;20024;-78
2023/01/04 17:12:53;;;;;;;0.10;0.10;;;;;;;-145.06;100.00;53851.88;10295268;28;20042;-78
2023/01/04 17:17:54;;;;;;;0.10;0.10;;;;;;;-145.06;100.00;53831.63;10300676;28;20049;-77
2023/01/04 17:22:54;;;;;;;0.10;0.10;;;;;;;-145.06;100.00;53847.84;10295877;28;20040;-77
2023/01/04 17:27:54;;;;;;;0.10;0.10;;;;;;;-145.06;100.00;53876.19;10295317;28;20109;-78
2023/01/04 17:32:55;;;;;;;0.10;0.10;;;;;;;-145.06;100.00;53827.59;10294994;28;20031;-78
2023/01/04 17:37:55;;;;;;;0.07;0.07;;;;;;;-145.06;100.00;53857.97;10292286;28;20011;-78
2023/01/04 17:42:57;;;;;;;0.07;0.07;;;;;;;-145.06;100.00;53853.91;10279705;28;20105;-78
2023/01/04 17:47:57;;;;;;;0.00;0.00;;;;;;;-145.06;100.00;53845.81;10298656;28;20274;-78
2023/01/04 17:52:58;;;;;;;0.03;0.03;;;;;;;-145.06;100.00;53882.25;10294463;28;20073;-78
2023/01/04 17:57:58;;;;;;;0.10;0.10;;;;;;;-145.06;100.00;53880.22;10294387;28;20262;-77
2023/01/04 18:02:58;;;;;;;0.03;0.03;;;;;;;-145.06;100.00;53864.03;10293938;28;20482;-77
2023/01/04 18:07:59;;;;;;;0.10;0.10;;;;;;;-145.06;100.00;53870.09;10293382;28;20125;-77
2023/01/04 18:12:59;;;;;;;0.10;0.10;;;;;;;-145.06;100.00;53847.84;10293826;28;20038;-78
2023/01/04 18:17:59;;;;;;;0.10;0.10;;;;;;;-145.06;100.00;53882.25;10294037;28;20078;-78
2023/01/04 18:22:59;;;;;;;0.10;0.10;;;;;;;-145.06;100.00;53799.22;10292906;28;20022;-78
2023/01/04 18:28:00;;;;;;;0.00;0.00;;;;;;;-145.06;100.00;53851.88;10292436;28;20023;-78
2023/01/04 18:33:00;;;;;;;0.10;0.10;;;;;;;-145.06;100.00;53896.44;10292291;28;20672;-77
2023/01/04 18:38:01;;;;;;;0.10;0.10;;;;;;;-145.06;100.00;53849.84;10292103;28;20326;-77
2023/01/04 18:43:01;;;;;;;0.10;0.10;;;;;;;-145.06;100.00;53839.72;10291518;28;20019;-78
2023/01/04 18:48:01;;;;;;;0.00;0.00;;;;;;;-145.06;100.00;53833.66;10300593;28;20107;-77
2023/01/04 18:53:02;;;;;;;0.00;0.00;;;;;;;-145.06;100.00;53880.22;10292225;28;20034;-78
2023/01/04 18:58:02;;;;;;;0.00;0.00;;;;;;;-145.06;100.00;53872.13;10292765;28;20256;-78
2023/01/04 19:03:02;;;;;;;0.10;0.10;;;;;;;-145.06;100.00;53882.25;10292495;28;20029;-78
2023/01/04 19:08:03;;;;;;;0.10;0.10;;;;;;;-145.06;100.00;53876.19;10293955;28;20030;-78
2023/01/04 19:13:03;;;;;;;0.00;0.00;;;;;;;-145.06;100.00;53868.09;10276143;28;20038;-77
2023/01/04 19:18:04;;;;;;;0.00;0.00;;;;;;;-145.06;100.00;53841.75;10291680;28;20025;-77
2023/01/04 19:23:05;;;;;;;0.10;0.10;;;;;;;-145.06;100.00;53847.84;10273794;28;20077;-77
2023/01/04 19:28:06;;;;;;;0.10;0.10;;;;;;;-145.06;100.00;53855.94;10291212;28;20014;-78
2023/01/04 19:33:08;;;;;;;0.10;0.10;;;;;;;-145.06;100.00;53835.69;10291024;28;20059;-78
2023/01/04 19:38:09;;;;;;;0.10;0.10;;;;;;;-145.06;100.00;53851.88;10293779;28;20118;-78
2023/01/04 19:43:09;;;;;;;0.00;0.00;;;;;;;-145.06;100.00;53845.81;10297846;28;20081;-78
2023/01/04 19:48:09;;;;;;;0.10;0.10;;;;;;;-145.06;100.00;53835.69;10279224;28;20030;-77
2023/01/04 19:53:10;;;;;;;0.00;0.00;;;;;;;-145.06;100.00;53835.69;10279934;28;20033;-77
2023/01/04 19:58:10;;;;;;;0.00;0.00;;;;;;;-145.06;100.00;53868.09;10280424;28;20027;-78
2023/01/04 20:03:10;;;;;;;0.00;0.00;;;;;;;-145.06;100.00;53841.75;10298641;28;20422;-77
2023/01/04 20:08:11;;;;;;;0.10;0.10;;;;;;;-145.06;100.00;53851.88;10297216;28;20046;-78
2023/01/04 20:13:11;;;;;;;0.10;0.10;;;;;;;-145.06;100.00;53819.47;10296612;28;20037;-77
2023/01/04 20:18:11;;;;;;;0.10;0.10;;;;;;;-145.06;100.00;53841.75;10296852;28;20270;-79
2023/01/04 20:23:13;;;;;;;0.10;0.10;;;;;;;-145.06;100.00;53876.19;10296895;28;20370;-78
2023/01/04 20:28:14;;;;;;;0.10;0.10;;;;;;;-145.06;100.00;53831.63;10297154;28;20436;-78
2023/01/04 20:33:14;;;;;;;0.00;0.00;;;;;;;-145.06;100.00;53874.16;10296650;28;20034;-79
2023/01/04 20:38:15;;;;;;;0.10;0.10;;;;;;;-145.06;100.00;53874.16;10297236;28;21813;-77
2023/01/04 20:43:35;;;;;;;0.10;0.10;;;;;;;-145.06;100.00;53862.00;10296624;28;20620;-78
2023/01/04 20:48:35;;;;;;;0.10;0.10;;;;;;;-145.06;100.00;53880.22;10308821;23;20297;-82
2023/01/04 20:53:36;;;;;;;0.00;0.00;;;;;;;-145.06;100.00;53839.72;10287088;28;20041;-81
2023/01/04 20:58:37;;;;;;;0.10;0.10;;;;;;;-145.06;100.00;53851.88;10302500;28;20057;-79
2023/01/04 21:03:38;;;;;;;0.10;0.10;;;;;;;-145.06;100.00;53847.84;10287733;28;20027;-81
2023/01/04 21:08:39;;;;;;;0.00;0.00;;;;;;;-145.06;100.00;53884.28;10305176;28;20026;-81
2023/01/04 21:13:41;;;;;;;0.00;0.00;;;;;;;-145.06;100.00;53880.22;10286911;28;20114;-80
2023/01/04 21:18:42;;;;;;;0.10;0.10;;;;;;;-145.06;100.00;53912.63;10287252;28;20018;-79
2023/01/04 21:23:43;;;;;;;0.10;0.10;;;;;;;-145.06;100.00;53841.75;10307574;28;20026;-81
2023/01/04 21:28:44;;;;;;;0.10;0.10;;;;;;;-145.06;100.00;53880.22;10306289;28;20034;-80
2023/01/04 21:33:45;;;;;;;0.10;0.10;;;;;;;-145.06;100.00;53851.88;10305520;28;20081;-80
2023/01/04 21:38:50;;;;;;;0.00;0.00;;;;;;;-145.06;100.00;53835.69;10304645;28;20070;-79
2023/01/04 21:43:52;;;;;;;0.10;0.10;;;;;;;-145.06;100.00;53868.09;10306096;28;20031;-83
2023/01/04 21:48:55;;;;;;;0.00;0.00;;;;;;;-145.06;100.00;53831.63;10287511;28;20091;-82
2023/01/04 21:53:56;;;;;;;0.00;0.00;;;;;;;-145.06;100.00;53835.69;10286559;28;20033;-77
2023/01/04 21:58:57;;;;;;;0.08;0.08;;;;;;;-145.06;100.00;53884.28;10303648;28;20034;-79
2023/01/04 22:03:57;;;;;;;0.10;0.10;;;;;;;-145.06;100.00;53845.81;10287994;28;20028;-79
2023/01/04 22:08:57;;;;;;;0.10;0.10;;;;;;;-145.06;100.00;53831.63;10304156;28;20029;-80
2023/01/04 22:13:58;;;;;;;0.10;0.10;;;;;;;-145.06;100.00;53839.72;10287303;28;20137;-81
2023/01/04 22:18:58;;;;;;;0.10;0.10;;;;;;;-145.06;100.00;53874.16;10290309;28;20015;-80
2023/01/04 22:23:59;;;;;;;0.10;0.10;;;;;;;-145.06;100.00;53839.72;10288018;28;20433;-81
2023/01/04 22:28:59;;;;;;;0.03;0.03;;;;;;;-145.06;100.00;53866.06;10305845;28;20023;-81
2023/01/04 22:34:00;;;;;;;0.10;0.10;;;;;;;-145.06;100.00;53847.84;10288386;28;20031;-82
2023/01/04 22:39:00;;;;;;;0.00;0.00;;;;;;;-145.06;100.00;53827.59;10305600;28;20266;-82
2023/01/04 22:44:03;;;;;;;0.00;0.00;;;;;;;-145.06;100.00;53876.19;10305744;28;20054;-82
2023/01/04 22:49:04;;;;;;;0.00;0.00;;;;;;;-145.06;100.00;53849.84;10286726;28;20034;-82
2023/01/04 22:54:04;;;;;;;0.00;0.00;;;;;;;-145.06;100.00;53811.38;10305726;28;20099;-83
2023/01/04 22:59:04;;;;;;;0.10;0.10;;;;;;;-145.06;100.00;53825.56;10288130;28;20102;-82
2023/01/04 23:04:05;;;;;;;0.00;0.00;;;;;;;-145.06;100.00;53868.09;10288582;28;20353;-81
2023/01/04 23:09:09;;;;;;;0.10;0.10;;;;;;;-145.06;100.00;53878.22;10287544;28;20609;-80
2023/01/04 23:14:14;;;;;;;0.00;0.00;;;;;;;-145.06;100.00;53849.84;10307296;28;20325;-82
2023/01/04 23:19:16;;;;;;;0.08;0.08;;;;;;;-145.06;100.00;53866.06;10312025;28;20027;-80
2023/01/04 23:24:16;;;;;;;0.10;0.10;;;;;;;-145.06;100.00;53864.03;10295328;28;20263;-82
2023/01/04 23:29:17;;;;;;;0.10;0.10;;;;;;;-145.06;100.00;53845.81;10310786;28;20055;-81
2023/01/04 23:34:17;;;;;;;0.00;0.00;;;;;;;-145.06;100.00;53823.53;10293666;28;20286;-81
2023/01/04 23:39:17;;;;;;;0.00;0.00;;;;;;;-145.06;100.00;53843.78;10308674;28;20053;-82
2023/01/04 23:44:20;;;;;;;0.10;0.10;;;;;;;-145.06;100.00;53855.94;10289432;28;20054;-82
2023/01/04 23:49:22;;;;;;;0.00;0.00;;;;;;;-145.06;100.00;53847.84;10308674;28;20121;-79